Time;durP1;ratioP1;P1;durP2;ratioP2;P2;SDS_P1;SDS_P2;PMS_P1;PMS_P2;Temp;Humidity;BMP_temperature;BMP_pressure;BME280_temperature;BME280_humidity;BME280_pressure;Samples;Min_cycle;Max_cycle;Signal;HPM_P1;HPM_P2
2022/10/24 00:00:26;;;;;;;5.80;4.15;;;;;;;22.22;64.34;99362.56;2070773;28;20049;-48
2022/10/24 00:01:28;;;;;;;4.75;3.58;;;;;;;22.22;64.41;99359.06;2071213;28;20053;-49
2022/10/24 00:02:29;;;;;;;6.25;4.57;;;;;;;22.24;64.30;99359.69;2069190;28;20172;-47
2022/10/24 00:03:30;;;;;;;4.68;4.28;;;;;;;22.23;64.38;99358.00;2071172;28;20056;-46
2022/10/24 00:04:35;;;;;;;5.07;4.38;;;;;;;22.21;64.29;99349.28;2068704;28;20115;-46
2022/10/24 00:05:40;;;;;;;4.25;3.78;;;;;;;22.22;64.34;99357.19;2069843;28;20053;-48
2022/10/24 00:06:41;;;;;;;5.20;4.35;;;;;;;22.22;64.48;99356.34;2068722;28;21362;-45
2022/10/24 00:07:43;;;;;;;7.55;5.32;;;;;;;22.22;64.25;99350.94;2075051;28;20507;-53
2022/10/24 00:08:44;;;;;;;5.45;4.13;;;;;;;22.22;64.42;99356.34;2065719;28;20049;-47
2022/10/24 00:09:46;;;;;;;6.22;3.85;;;;;;;22.23;64.61;99352.59;2067828;28;21041;-48
2022/10/24 00:10:48;;;;;;;5.38;4.75;;;;;;;22.23;64.24;99353.44;2067391;28;20053;-45
2022/10/24 00:11:50;;;;;;;5.28;4.38;;;;;;;22.22;64.31;99356.34;2069313;28;20081;-46
2022/10/24 00:12:53;;;;;;;5.32;4.55;;;;;;;22.22;64.50;99351.78;2071119;28;20042;-47
2022/10/24 00:13:57;;;;;;;5.60;4.70;;;;;;;22.22;64.36;99359.88;2069478;28;21036;-46
2022/10/24 00:14:58;;;;;;;4.60;4.13;;;;;;;22.20;64.38;99359.25;2069273;28;20122;-48
2022/10/24 00:16:00;;;;;;;4.45;4.00;;;;;;;22.21;64.43;99360.94;2064608;28;20050;-47
2022/10/24 00:17:00;;;;;;;5.57;4.75;;;;;;;22.22;64.31;99357.19;2068677;28;20080;-47
2022/10/24 00:18:02;;;;;;;5.00;4.43;;;;;;;22.21;64.38;99354.69;2072277;28;20049;-50
2022/10/24 00:19:03;;;;;;;5.00;4.20;;;;;;;22.21;64.47;99358.22;2069385;28;20041;-48
2022/10/24 00:20:07;;;;;;;4.78;3.83;;;;;;;22.21;64.37;99357.41;2070661;28;20500;-47
2022/10/24 00:21:08;;;;;;;6.15;4.60;;;;;;;22.22;64.31;99361.75;2065886;28;20084;-47
2022/10/24 00:22:10;;;;;;;6.72;4.93;;;;;;;22.21;64.25;99350.13;2070588;28;20049;-48
2022/10/24 00:23:12;;;;;;;4.68;4.28;;;;;;;22.21;64.46;99354.69;2069644;28;20767;-47
2022/10/24 00:24:14;;;;;;;6.10;4.38;;;;;;;22.21;64.21;99355.53;2069811;28;20048;-48
2022/10/24 00:25:15;;;;;;;5.22;3.88;;;;;;;22.21;64.42;99346.59;2068550;28;21335;-47
2022/10/24 00:26:17;;;;;;;5.78;4.55;;;;;;;22.21;64.40;99346.59;2071309;28;20056;-47
2022/10/24 00:27:18;;;;;;;5.18;4.60;;;;;;;22.21;64.26;99346.59;2069497;28;20053;-48
2022/10/24 00:28:21;;;;;;;6.65;4.28;;;;;;;22.20;64.48;99344.91;2066567;28;20716;-47
2022/10/24 00:29:22;;;;;;;4.72;4.30;;;;;;;22.20;64.31;99342.22;2071675;28;20111;-47
2022/10/24 00:30:24;;;;;;;;;;;;;;;22.09;64.66;99351.75;2074052;28;20054;-49
2022/10/24 00:31:25;;;;;;;4.40;3.97;;;;;;;22.13;64.49;99353.00;2066787;28;19936;-47
2022/10/24 00:32:26;;;;;;;7.75;4.88;;;;;;;22.15;64.37;99350.06;2071637;28;20057;-46
2022/10/24 00:33:27;;;;;;;5.10;4.50;;;;;;;22.17;64.42;99348.81;2067879;28;20056;-46
2022/10/24 00:34:29;;;;;;;6.03;4.72;;;;;;;22.18;64.36;99341.63;2072924;28;20060;-47
2022/10/24 00:35:30;;;;;;;5.55;4.80;;;;;;;22.20;64.33;99340.34;2069739;28;20102;-47
2022/10/24 00:36:31;;;;;;;;;;;;;;;22.09;64.54;99344.50;2072075;28;20100;-47
2022/10/24 00:37:32;;;;;;;5.30;4.00;;;;;;;22.11;64.64;99343.44;2069653;28;19936;-49
2022/10/24 00:38:34;;;;;;;4.88;4.35;;;;;;;22.14;64.47;99343.03;2070582;28;20551;-48
2022/10/24 00:39:35;;;;;;;6.22;4.35;;;;;;;22.17;64.61;99334.50;2068834;28;20054;-48
2022/10/24 00:40:37;;;;;;;5.65;4.32;;;;;;;22.17;64.47;99338.03;2066625;28;20045;-48
2022/10/24 00:41:41;;;;;;;4.40;3.95;;;;;;;22.18;64.48;99331.63;2070232;28;20057;-47
2022/10/24 00:42:42;;;;;;;4.60;4.20;;;;;;;22.17;64.44;99331.78;2071153;28;21266;-49
2022/10/24 00:43:46;;;;;;;7.55;4.85;;;;;;;22.18;64.12;99341.63;2069461;28;20075;-48
2022/10/24 00:44:51;;;;;;;5.82;4.18;;;;;;;22.17;64.52;99332.63;2070706;28;20212;-47
2022/10/24 00:45:55;;;;;;;10.05;4.75;;;;;;;22.18;64.36;99333.50;2068478;28;20050;-46
2022/10/24 00:46:58;;;;;;;4.47;3.70;;;;;;;22.18;64.43;99328.94;2066839;28;20077;-48
2022/10/24 00:48:00;;;;;;;5.32;4.03;;;;;;;22.17;64.43;99337.19;2070706;28;20948;-49
2022/10/24 00:49:02;;;;;;;4.75;4.30;;;;;;;22.20;64.42;99334.09;2071406;28;20053;-47
2022/10/24 00:50:13;;;;;;;5.40;4.20;;;;;;;22.18;64.11;99333.50;2071757;28;20106;-48
2022/10/24 00:51:20;;;;;;;5.40;4.80;;;;;;;22.18;64.28;99338.91;2065900;28;20052;-47
2022/10/24 00:52:25;;;;;;;5.35;4.68;;;;;;;22.17;64.34;99329.09;2071139;28;20061;-45
2022/10/24 00:53:28;;;;;;;4.57;3.92;;;;;;;22.18;64.24;99333.50;2071887;28;20544;-48
2022/10/24 00:54:30;;;;;;;4.93;4.43;;;;;;;22.18;64.30;99328.09;2069869;28;20061;-46
2022/10/24 00:55:31;;;;;;;5.47;4.57;;;;;;;22.18;64.32;99328.94;2070678;28;20136;-45
2022/10/24 00:56:37;;;;;;;4.95;4.47;;;;;;;22.20;64.47;99328.69;2071001;28;20045;-48
2022/10/24 00:57:43;;;;;;;5.00;4.35;;;;;;;22.18;64.28;99328.09;2067719;28;21012;-46
2022/10/24 00:58:48;;;;;;;4.40;3.90;;;;;;;22.18;64.20;99334.34;2071311;28;20052;-54
2022/10/24 00:59:54;;;;;;;5.20;4.70;;;;;;;22.18;64.34;99331.63;2070475;28;20513;-47
2022/10/24 01:00:56;;;;;;;4.57;4.18;;;;;;;22.18;64.36;99326.22;2069283;28;20112;-46
2022/10/24 01:01:56;;;;;;;4.90;4.40;;;;;;;22.18;64.20;99328.09;2068993;28;20091;-48
2022/10/24 01:02:59;;;;;;;7.38;4.57;;;;;;;22.18;64.26;99330.81;2073380;28;20050;-49
2022/10/24 01:04:00;;;;;;;4.70;4.25;;;;;;;22.18;64.30;99328.09;2073170;28;20053;-46
2022/10/24 01:05:03;;;;;;;4.50;3.90;;;;;;;22.19;64.23;99329.75;2071300;28;20602;-46
2022/10/24 01:06:20;;;;;;;5.85;4.25;;;;;;;22.16;64.26;99325.56;2070916;28;20106;-46
2022/10/24 01:07:40;;;;;;;6.55;4.05;;;;;;;22.13;64.47;99323.28;2055623;28;20509;-47
2022/10/24 01:08:46;;;;;;;5.15;4.03;;;;;;;22.14;64.38;99326.81;2068911;28;20052;-51
2022/10/24 01:10:13;;;;;;;6.38;4.63;;;;;;;22.15;64.46;99323.91;2071035;28;20045;-46
2022/10/24 01:11:30;;;;;;;5.63;4.45;;;;;;;22.13;64.30;99325.16;2064644;28;20049;-45
2022/10/24 01:12:45;;;;;;;5.65;4.35;;;;;;;22.11;64.35;99316.44;2071127;28;20107;-48
2022/10/24 01:13:56;;;;;;;7.05;4.78;;;;;;;22.13;64.36;99314.34;2067066;28;20057;-46
2022/10/24 01:15:03;;;;;;;;;;;;;;;22.02;64.84;99318.53;2077703;28;20058;-47
2022/10/24 01:16:12;;;;;;;4.75;4.32;;;;;;;22.07;64.61;99322.25;2065111;28;19936;-47
2022/10/24 01:17:19;;;;;;;4.15;3.75;;;;;;;22.10;64.49;99315.59;2064736;28;20055;-49
2022/10/24 01:18:27;;;;;;;7.03;4.88;;;;;;;22.12;64.56;99318.09;2058925;28;20098;-52
2022/10/24 01:20:01;;;;;;;6.05;4.18;;;;;;;22.12;64.42;99323.47;2068231;28;21202;-54
2022/10/24 01:21:15;;;;;;;5.18;4.45;;;;;;;22.10;64.41;99315.59;2069987;28;20530;-48
2022/10/24 01:22:20;;;;;;;5.55;4.15;;;;;;;22.12;64.26;99308.13;2070481;28;20081;-52
2022/10/24 01:24:05;;;;;;;5.97;4.22;;;;;;;22.07;64.33;99311.44;2079456;28;20660;-47
2022/10/24 01:25:14;;;;;;;5.13;4.30;;;;;;;22.07;64.60;99311.44;2076719;28;20056;-54
2022/10/24 01:26:40;;;;;;;4.25;3.85;;;;;;;22.08;64.39;99307.69;2068291;28;20048;-51
2022/10/24 01:27:57;;;;;;;6.70;4.70;;;;;;;22.08;64.50;99299.59;2060976;28;20041;-54
2022/10/24 01:29:07;;;;;;;5.18;4.60;;;;;;;22.07;64.54;99303.34;2072119;28;20056;-46
2022/10/24 01:30:12;;;;;;;4.88;4.25;;;;;;;22.11;64.28;99305.63;2066026;28;23137;-54
2022/10/24 01:31:20;;;;;;;7.50;5.07;;;;;;;22.11;64.45;99305.63;2067702;28;20053;-46
2022/10/24 01:32:43;;;;;;;4.75;4.30;;;;;;;22.12;64.43;99304.56;2068112;28;20041;-49
2022/10/24 01:33:50;;;;;;;4.53;4.13;;;;;;;22.09;64.42;99301.28;2067501;28;20134;-51
2022/10/24 01:35:00;;;;;;;9.20;5.13;;;;;;;22.09;64.37;99298.56;2068464;28;20060;-53
2022/10/24 01:36:07;;;;;;;3.92;3.58;;;;;;;22.08;64.28;99299.59;2066123;28;20411;-49
2022/10/24 01:37:15;;;;;;;9.27;4.28;;;;;;;22.11;64.31;99300.22;2069512;28;20058;-49
2022/10/24 01:38:22;;;;;;;6.07;4.72;;;;;;;22.13;64.25;99298.16;2065240;28;20049;-49
2022/10/24 01:39:29;;;;;;;5.15;4.28;;;;;;;22.11;64.17;99295.63;2069961;28;20119;-47
2022/10/24 01:40:34;;;;;;;4.85;4.35;;;;;;;22.13;64.25;99306.25;2073088;28;20713;-50
2022/10/24 01:41:36;;;;;;;5.45;4.80;;;;;;;22.11;64.45;99308.31;2068851;28;20045;-49
2022/10/24 01:42:39;;;;;;;4.82;4.43;;;;;;;22.12;64.38;99315.38;2069149;28;20053;-50
2022/10/24 01:43:46;;;;;;;5.47;4.53;;;;;;;22.12;64.14;99316.22;2069753;28;20052;-48
2022/10/24 01:44:49;;;;;;;4.30;3.88;;;;;;;22.12;64.31;99304.56;2071588;28;20626;-48
2022/10/24 01:45:58;;;;;;;6.22;4.47;;;;;;;22.13;64.16;99306.25;2067950;28;20227;-51
2022/10/24 01:47:06;;;;;;;5.22;4.38;;;;;;;22.12;64.35;99294.63;2066808;28;20057;-51
2022/10/24 01:48:12;;;;;;;5.38;4.80;;;;;;;22.12;64.08;99297.31;2071353;28;20560;-47
2022/10/24 01:49:16;;;;;;;5.03;4.53;;;;;;;22.13;64.31;99293.56;2070153;28;20523;-51
2022/10/24 01:50:21;;;;;;;5.82;4.20;;;;;;;22.14;64.24;99291.69;2070913;28;20072;-53
2022/10/24 01:51:26;;;;;;;6.53;4.70;;;;;;;22.12;64.17;99289.22;2066270;28;20037;-47
2022/10/24 01:52:32;;;;;;;6.70;5.15;;;;;;;22.13;64.34;99298.97;2068230;28;20050;-53
2022/10/24 01:53:36;;;;;;;5.30;4.70;;;;;;;22.13;64.04;99298.16;2063185;28;20053;-50
2022/10/24 01:54:37;;;;;;;5.30;4.80;;;;;;;22.15;64.09;99301.44;2067974;28;20045;-51
2022/10/24 01:55:40;;;;;;;5.35;4.47;;;;;;;22.14;64.20;99294.38;2071318;28;20142;-54
2022/10/24 01:56:41;;;;;;;5.00;4.25;;;;;;;22.14;64.15;99299.78;2070098;28;20052;-48
2022/10/24 01:57:43;;;;;;;5.00;4.35;;;;;;;22.13;64.11;99292.75;2068268;28;20765;-51
2022/10/24 01:58:44;;;;;;;5.13;4.45;;;;;;;22.15;63.99;99301.44;2068203;28;20053;-48
2022/10/24 01:59:48;;;;;;;4.45;4.05;;;;;;;22.14;64.09;99297.91;2070260;28;20136;-51
2022/10/24 02:00:51;;;;;;;5.07;4.53;;;;;;;22.15;64.23;99301.44;2067940;28;20054;-49
2022/10/24 02:02:03;;;;;;;5.97;4.82;;;;;;;22.13;64.17;99296.28;2068352;28;20104;-48
2022/10/24 02:03:12;;;;;;;5.38;4.25;;;;;;;22.12;64.25;99308.13;2068388;28;20137;-52
2022/10/24 02:04:14;;;;;;;4.57;4.13;;;;;;;22.11;64.25;99300.22;2069265;28;20171;-49
2022/10/24 02:05:19;;;;;;;5.18;4.65;;;;;;;22.12;64.13;99302.72;2068243;28;20967;-48
2022/10/24 02:06:25;;;;;;;5.43;4.85;;;;;;;22.12;64.22;99293.75;2068638;28;20451;-48
2022/10/24 02:07:29;;;;;;;4.65;4.15;;;;;;;22.11;64.12;99300.22;2070842;28;20491;-52
2022/10/24 02:08:35;;;;;;;5.15;4.57;;;;;;;22.13;64.09;99295.44;2069641;28;21028;-54
2022/10/24 02:09:38;;;;;;;4.47;4.07;;;;;;;22.12;64.25;99296.47;2070926;28;20146;-48
2022/10/24 02:10:45;;;;;;;5.15;4.13;;;;;;;22.13;63.98;99292.75;2070610;28;20040;-51
2022/10/24 02:11:48;;;;;;;6.68;4.75;;;;;;;22.11;64.20;99295.63;2070270;28;20053;-49
2022/10/24 02:12:54;;;;;;;6.38;5.00;;;;;;;22.13;64.09;99293.56;2068421;28;20048;-49
2022/10/24 02:14:00;;;;;;;7.88;5.03;;;;;;;22.12;64.09;99293.75;2068976;28;20048;-50
2022/10/24 02:15:05;;;;;;;5.68;4.72;;;;;;;22.11;64.15;99289.41;2069561;28;21233;-51
2022/10/24 02:16:09;;;;;;;6.75;4.80;;;;;;;22.11;64.04;99286.72;2069417;28;20072;-49
2022/10/24 02:17:11;;;;;;;4.72;4.28;;;;;;;22.12;64.04;99293.75;2068472;28;20049;-45
2022/10/24 02:18:13;;;;;;;5.78;4.68;;;;;;;22.13;63.96;99287.34;2068994;28;20146;-49
2022/10/24 02:19:15;;;;;;;8.15;4.97;;;;;;;22.13;64.11;99292.75;2069635;28;20063;-51
2022/10/24 02:20:17;;;;;;;6.10;4.43;;;;;;;22.12;63.96;99285.66;2055606;28;20053;-50
2022/10/24 02:21:30;;;;;;;7.03;4.80;;;;;;;22.11;64.11;99284.84;2066073;28;20108;-50
2022/10/24 02:22:42;;;;;;;6.57;4.80;;;;;;;22.10;64.13;99288.59;2067833;28;20060;-54
2022/10/24 02:23:50;;;;;;;5.03;4.53;;;;;;;22.09;64.02;99287.75;2067655;28;20045;-51
2022/10/24 02:24:58;;;;;;;4.78;4.28;;;;;;;22.08;64.20;99294.19;2065985;28;20756;-51
2022/10/24 02:26:03;;;;;;;6.00;4.85;;;;;;;22.09;64.19;99287.75;2063797;28;20057;-50
2022/10/24 02:27:09;;;;;;;7.03;4.28;;;;;;;22.09;64.35;99289.59;2069862;28;20132;-54
2022/10/24 02:28:15;;;;;;;5.18;4.40;;;;;;;22.11;64.20;99297.53;2066634;28;20781;-49
2022/10/24 02:29:22;;;;;;;5.25;4.75;;;;;;;22.09;63.94;99298.56;2069049;28;20054;-54
2022/10/24 02:30:25;;;;;;;6.15;5.05;;;;;;;22.09;64.20;99295.88;2069131;28;20097;-53
2022/10/24 02:31:32;;;;;;;5.93;5.13;;;;;;;22.10;64.19;99288.59;2071331;28;20050;-52
2022/10/24 02:32:39;;;;;;;7.20;4.68;;;;;;;22.09;64.24;99287.75;2066906;28;20046;-53
2022/10/24 02:33:42;;;;;;;5.38;4.88;;;;;;;22.11;64.23;99294.81;2063477;28;20049;-52
2022/10/24 02:34:45;;;;;;;4.93;4.43;;;;;;;22.12;64.12;99296.47;2067698;28;20135;-52
2022/10/24 02:35:51;;;;;;;5.25;4.63;;;;;;;22.11;64.10;99294.81;2071777;28;21928;-48
2022/10/24 02:36:54;;;;;;;6.40;4.53;;;;;;;22.11;64.12;99297.53;2070852;28;21239;-51
2022/10/24 02:38:03;;;;;;;7.93;5.60;;;;;;;22.11;64.17;99302.91;2068588;28;20156;-49
2022/10/24 02:39:07;;;;;;;5.53;3.92;;;;;;;22.09;64.02;99293.16;2069274;28;20054;-54
2022/10/24 02:40:12;;;;;;;5.85;4.22;;;;;;;22.10;64.00;99291.28;2068560;28;20073;-54
2022/10/24 02:41:18;;;;;;;5.00;4.50;;;;;;;22.11;63.96;99289.41;2069389;28;20106;-50
2022/10/24 02:42:21;;;;;;;7.00;5.15;;;;;;;22.11;64.09;99289.41;2071033;28;20060;-49
2022/10/24 02:43:22;;;;;;;6.70;4.50;;;;;;;22.11;63.99;99284.84;2072284;28;20052;-51
2022/10/24 02:44:27;;;;;;;5.18;4.32;;;;;;;22.10;63.97;99277.78;2071811;28;20126;-52
2022/10/24 02:45:28;;;;;;;4.90;4.38;;;;;;;22.12;64.24;99277.56;2072718;28;20045;-48
2022/10/24 02:46:32;;;;;;;5.88;4.88;;;;;;;22.09;64.25;99282.34;2070883;28;20057;-52
2022/10/24 02:47:37;;;;;;;4.85;4.35;;;;;;;22.10;64.28;99283.19;2069813;28;20053;-49
2022/10/24 02:48:43;;;;;;;5.03;4.53;;;;;;;22.10;64.13;99283.19;2070874;28;20561;-53
2022/10/24 02:49:45;;;;;;;6.63;4.50;;;;;;;22.08;64.05;99275.28;2068751;28;20050;-52
2022/10/24 02:50:47;;;;;;;5.22;4.72;;;;;;;22.09;64.14;99266.16;2069530;28;20371;-52
2022/10/24 02:51:51;;;;;;;4.53;4.10;;;;;;;22.09;64.17;99268.84;2072468;28;20889;-49
2022/10/24 02:52:52;;;;;;;5.15;4.65;;;;;;;22.10;63.93;99277.78;2072006;28;20044;-50
2022/10/24 02:53:54;;;;;;;6.43;4.57;;;;;;;22.11;63.93;99274.03;2069934;28;20045;-53
2022/10/24 02:54:55;;;;;;;5.85;5.25;;;;;;;22.11;63.64;99270.50;2070482;28;20061;-49
2022/10/24 02:55:57;;;;;;;7.10;4.75;;;;;;;22.11;64.00;99273.22;2072450;28;20581;-51
2022/10/24 02:57:01;;;;;;;5.55;4.40;;;;;;;22.13;63.96;99273.84;2069793;28;20181;-54
2022/10/24 02:58:03;;;;;;;4.53;4.03;;;;;;;22.09;64.05;99273.41;2074779;28;20065;-50
2022/10/24 02:59:04;;;;;;;6.57;4.35;;;;;;;22.09;64.25;99276.97;2068650;28;20117;-51
2022/10/24 03:00:07;;;;;;;5.53;5.00;;;;;;;22.08;64.10;99269.88;2071527;28;20057;-51
2022/10/24 03:01:08;;;;;;;6.25;4.68;;;;;;;22.09;64.03;99266.16;2070697;28;20604;-49
2022/10/24 03:02:10;;;;;;;5.82;5.25;;;;;;;22.12;64.11;99270.31;2072095;28;20049;-51
2022/10/24 03:03:13;;;;;;;6.25;4.80;;;;;;;22.09;63.97;99262.59;2071090;28;20037;-52
2022/10/24 03:04:14;;;;;;;7.32;5.20;;;;;;;22.10;63.99;99264.28;2068613;28;20056;-51
2022/10/24 03:05:15;;;;;;;7.72;4.75;;;;;;;22.10;64.18;99264.28;2074048;28;20057;-48
2022/10/24 03:06:17;;;;;;;6.00;5.10;;;;;;;22.08;63.95;99267.19;2068790;28;20096;-48
2022/10/24 03:07:18;;;;;;;6.63;5.30;;;;;;;22.09;64.14;99266.16;2073027;28;20050;-53
2022/10/24 03:08:20;;;;;;;5.15;4.65;;;;;;;22.10;63.93;99266.97;2073252;28;20052;-53
2022/10/24 03:09:21;;;;;;;8.00;4.75;;;;;;;22.10;64.10;99269.69;2071367;28;20057;-48
2022/10/24 03:10:22;;;;;;;4.57;4.18;;;;;;;22.09;64.18;99266.16;2068650;28;20969;-52
2022/10/24 03:11:23;;;;;;;5.20;4.53;;;;;;;22.09;64.03;99266.16;2071309;28;20114;-49
2022/10/24 03:12:25;;;;;;;5.53;4.97;;;;;;;22.08;63.98;99264.47;2070348;28;20115;-52
2022/10/24 03:13:26;;;;;;;5.03;4.55;;;;;;;22.09;63.95;99266.16;2074054;28;20095;-52
2022/10/24 03:14:28;;;;;;;5.85;5.35;;;;;;;22.09;64.12;99263.44;2075440;28;20107;-54
2022/10/24 03:15:29;;;;;;;7.10;5.32;;;;;;;22.08;63.98;99267.19;2073162;28;20053;-48
2022/10/24 03:16:31;;;;;;;5.72;5.25;;;;;;;22.06;64.03;99261.19;2071461;28;20680;-52
2022/10/24 03:17:31;;;;;;;5.70;4.60;;;;;;;22.08;64.03;99261.78;2071502;28;20045;-48
2022/10/24 03:18:34;;;;;;;6.78;4.72;;;;;;;22.10;64.05;99266.97;2067109;28;20057;-51
2022/10/24 03:19:37;;;;;;;5.78;5.28;;;;;;;22.09;63.96;99266.16;2073436;28;20484;-52
2022/10/24 03:20:39;;;;;;;5.25;4.78;;;;;;;22.09;64.05;99265.28;2072874;28;20045;-54
2022/10/24 03:21:40;;;;;;;5.15;4.65;;;;;;;22.08;63.98;99258.25;2077094;28;20049;-49
2022/10/24 03:22:42;;;;;;;5.53;4.90;;;;;;;22.09;64.09;99259.91;2081205;28;20127;-52
2022/10/24 03:23:43;;;;;;;5.30;4.55;;;;;;;22.07;64.06;99256.59;2072251;28;20230;-49
2022/10/24 03:24:44;;;;;;;;;;;;;;;21.99;64.32;99252.25;2071191;28;20107;-54
2022/10/24 03:25:45;;;;;;;;;;;;;;;21.89;64.34;99254.53;2071748;28;19970;-53
2022/10/24 03:26:47;;;;;;;7.70;4.80;;;;;;;21.94;64.30;99257.44;2072769;28;19925;-52
2022/10/24 03:27:47;;;;;;;7.00;4.88;;;;;;;21.99;64.19;99260.34;2076551;28;20480;-48
2022/10/24 03:28:49;;;;;;;5.47;4.78;;;;;;;22.03;64.06;99261.56;2072021;28;20056;-47
2022/10/24 03:29:50;;;;;;;6.93;5.88;;;;;;;22.04;64.01;99263.25;2073405;28;20054;-49
2022/10/24 03:30:52;;;;;;;5.30;4.80;;;;;;;22.05;64.03;99267.59;2073814;28;20099;-54
2022/10/24 03:31:53;;;;;;;5.55;4.45;;;;;;;22.06;64.13;99263.88;2079608;28;20049;-53
2022/10/24 03:32:54;;;;;;;;;;;;;;;21.95;64.45;99269.06;2070366;28;20073;-51
2022/10/24 03:33:57;;;;;;;;;;;;;;;21.87;64.76;99267.44;2074321;28;19978;-50
2022/10/24 03:34:58;;;;;;;5.50;4.90;;;;;;;21.93;64.65;99273.88;2066267;28;20044;-52
2022/10/24 03:35:59;;;;;;;5.65;4.63;;;;;;;21.98;64.41;99265.94;2069354;28;20053;-51
2022/10/24 03:37:01;;;;;;;;;;;;;;;21.91;64.57;99274.06;2067810;28;20076;-49
2022/10/24 03:38:02;;;;;;;9.25;5.22;;;;;;;21.95;64.38;99266.38;2071988;28;19929;-48
2022/10/24 03:39:04;;;;;;;5.43;4.88;;;;;;;22.00;64.30;99262.00;2070756;28;20052;-47
2022/10/24 03:40:06;;;;;;;6.65;4.93;;;;;;;22.00;64.40;99264.69;2071010;28;20683;-51
2022/10/24 03:41:08;;;;;;;5.47;4.78;;;;;;;22.01;64.04;99263.69;2068071;28;20087;-54
2022/10/24 03:42:09;;;;;;;5.35;4.85;;;;;;;22.04;63.97;99265.94;2069685;28;20324;-49
2022/10/24 03:43:11;;;;;;;6.03;4.90;;;;;;;22.06;64.12;99266.56;2068095;28;20059;-49
2022/10/24 03:44:12;;;;;;;5.45;4.95;;;;;;;22.06;64.01;99271.13;2073336;28;20049;-52
2022/10/24 03:45:14;;;;;;;11.15;5.45;;;;;;;22.05;64.08;99273.00;2066926;28;20061;-49
2022/10/24 03:46:15;;;;;;;6.45;5.13;;;;;;;22.06;64.12;99274.69;2070510;28;20053;-49
2022/10/24 03:47:17;;;;;;;5.03;4.57;;;;;;;22.06;63.95;99271.97;2068639;28;20049;-54
2022/10/24 03:48:17;;;;;;;5.80;5.13;;;;;;;22.07;64.03;99275.50;2072527;28;20057;-54
2022/10/24 03:49:21;;;;;;;6.65;5.28;;;;;;;22.06;64.17;99271.97;2068823;28;20058;-46
2022/10/24 03:50:21;;;;;;;5.70;4.95;;;;;;;22.07;64.14;99272.81;2070618;28;20052;-50
2022/10/24 03:51:23;;;;;;;7.43;5.25;;;;;;;22.06;63.87;99274.69;2069328;28;20049;-46
2022/10/24 03:52:25;;;;;;;5.07;4.50;;;;;;;22.06;64.19;99271.97;2070734;28;20466;-50
2022/10/24 03:53:26;;;;;;;6.18;5.47;;;;;;;22.04;63.98;99276.75;2068859;28;20060;-51
2022/10/24 03:54:27;;;;;;;5.38;4.85;;;;;;;22.07;64.04;99275.50;2068512;28;20557;-49
2022/10/24 03:55:30;;;;;;;6.15;5.28;;;;;;;22.07;63.93;99273.63;2067841;28;20063;-47
2022/10/24 03:56:30;;;;;;;6.95;4.18;;;;;;;22.05;64.03;99278.41;2067215;28;20514;-46
2022/10/24 03:57:32;;;;;;;6.03;4.53;;;;;;;22.05;63.92;99275.69;2069233;28;20049;-51
2022/10/24 03:58:33;;;;;;;7.68;6.00;;;;;;;22.06;63.91;99280.09;2071167;28;20058;-51
2022/10/24 03:59:35;;;;;;;5.70;5.20;;;;;;;22.04;63.99;99274.06;2070772;28;20106;-52
2022/10/24 04:00:39;;;;;;;9.40;5.13;;;;;;;22.06;64.03;99282.78;2074197;28;20049;-51
2022/10/24 04:01:41;;;;;;;5.82;4.55;;;;;;;22.04;63.90;99271.34;2069085;28;20057;-54
2022/10/24 04:02:41;;;;;;;6.57;5.68;;;;;;;22.04;63.90;99279.47;2069708;28;20045;-52
2022/10/24 04:03:44;;;;;;;5.10;4.60;;;;;;;22.05;64.20;99281.09;2059887;28;20119;-54
2022/10/24 04:04:46;;;;;;;4.68;4.28;;;;;;;22.07;64.08;99283.59;2064214;28;20149;-46
2022/10/24 04:05:48;;;;;;;5.38;4.53;;;;;;;22.04;64.18;99278.63;2068308;28;20136;-51
2022/10/24 04:06:48;;;;;;;5.80;4.93;;;;;;;22.04;64.14;99279.47;2070402;28;20107;-49
2022/10/24 04:07:50;;;;;;;5.70;4.82;;;;;;;22.05;63.96;99272.19;2070509;28;20470;-51
2022/10/24 04:08:51;;;;;;;5.32;4.53;;;;;;;22.04;63.91;99276.75;2072057;28;20056;-53
2022/10/24 04:09:54;;;;;;;6.85;4.97;;;;;;;22.04;63.96;99274.06;2065280;28;20072;-53
2022/10/24 04:10:55;;;;;;;5.07;4.57;;;;;;;22.06;63.94;99277.38;2070118;28;20168;-51
2022/10/24 04:11:57;;;;;;;5.32;4.82;;;;;;;22.04;64.16;99274.06;2068789;28;20060;-50
2022/10/24 04:12:57;;;;;;;5.70;4.75;;;;;;;22.04;63.84;99268.66;2066371;28;20077;-52
2022/10/24 04:13:59;;;;;;;;;;;;;;;21.95;64.37;99269.06;2067175;28;20053;-48
2022/10/24 04:15:00;;;;;;;4.85;4.28;;;;;;;21.98;64.13;99272.19;2069920;28;19980;-49
2022/10/24 04:16:02;;;;;;;5.10;4.47;;;;;;;22.00;64.09;99270.09;2074738;28;20049;-52
2022/10/24 04:17:03;;;;;;;5.53;4.80;;;;;;;22.03;64.43;99276.94;2071818;28;20053;-49
2022/10/24 04:18:07;;;;;;;6.80;5.18;;;;;;;22.03;64.02;99274.25;2069320;28;20049;-52
2022/10/24 04:19:09;;;;;;;5.00;4.53;;;;;;;22.05;64.13;99280.28;2069105;28;20045;-54
2022/10/24 04:20:12;;;;;;;6.45;4.72;;;;;;;22.02;64.00;99270.72;2072286;28;20107;-52
2022/10/24 04:21:13;;;;;;;4.72;4.32;;;;;;;22.04;64.03;99282.16;2068134;28;20180;-53
2022/10/24 04:22:15;;;;;;;5.70;5.03;;;;;;;22.03;64.15;99277.78;2070211;28;20163;-49
2022/10/24 04:23:16;;;;;;;6.60;5.18;;;;;;;22.05;63.90;99280.28;2070435;28;20146;-50
2022/10/24 04:24:18;;;;;;;5.57;5.07;;;;;;;22.03;63.98;99275.06;2068174;28;20049;-51
2022/10/24 04:25:19;;;;;;;4.90;4.25;;;;;;;22.02;64.09;99273.44;2074898;28;20107;-48
2022/10/24 04:26:20;;;;;;;5.85;4.88;;;;;;;22.03;64.20;99266.16;2073477;28;20056;-51
2022/10/24 04:27:21;;;;;;;4.70;4.28;;;;;;;22.03;64.19;99271.53;2071368;28;20048;-48
2022/10/24 04:28:23;;;;;;;5.15;4.60;;;;;;;22.03;63.97;99266.97;2070975;28;20045;-48
2022/10/24 04:29:24;;;;;;;5.13;4.63;;;;;;;22.04;63.85;99268.66;2066989;28;20065;-49
2022/10/24 04:30:27;;;;;;;;;;;;;;;21.94;64.22;99273.66;2073492;28;20479;-53
2022/10/24 04:31:28;;;;;;;5.75;4.75;;;;;;;21.96;64.21;99276.97;2072924;28;20257;-51
2022/10/24 04:32:30;;;;;;;;;;;;;;;21.88;64.47;99274.50;2070000;28;20061;-48
2022/10/24 04:33:32;;;;;;;6.25;5.05;;;;;;;21.94;64.24;99283.63;2068974;28;19925;-54
2022/10/24 04:34:34;;;;;;;7.65;4.35;;;;;;;21.98;64.31;99284.84;2072798;28;20105;-54
2022/10/24 04:35:37;;;;;;;4.90;4.25;;;;;;;22.01;63.92;99285.28;2068571;28;20041;-49
2022/10/24 04:36:39;;;;;;;5.03;4.55;;;;;;;22.02;63.98;99275.31;2067457;28;20046;-49
2022/10/24 04:37:40;;;;;;;5.32;4.68;;;;;;;22.03;64.15;99269.66;2069037;28;20048;-51
2022/10/24 04:38:42;;;;;;;5.18;4.68;;;;;;;22.02;64.02;99275.31;2071220;28;20145;-50
2022/10/24 04:39:43;;;;;;;4.93;4.35;;;;;;;22.01;64.01;99266.38;2067244;28;20045;-53
2022/10/24 04:40:47;;;;;;;5.90;4.72;;;;;;;22.01;63.93;99269.06;2070267;28;20477;-51
2022/10/24 04:41:47;;;;;;;5.00;4.30;;;;;;;22.01;64.17;99266.38;2068397;28;20514;-46
2022/10/24 04:42:49;;;;;;;7.40;5.82;;;;;;;22.02;64.01;99269.91;2071508;28;20064;-45
2022/10/24 04:43:51;;;;;;;6.78;6.00;;;;;;;22.02;64.02;99265.31;2069068;28;20486;-46
2022/10/24 04:44:53;;;;;;;4.93;4.28;;;;;;;22.02;63.93;99265.31;2071967;28;20526;-46
2022/10/24 04:45:54;;;;;;;5.72;5.00;;;;;;;22.02;63.80;99268.03;2069478;28;20056;-52
2022/10/24 04:46:56;;;;;;;6.05;5.20;;;;;;;22.01;63.94;99263.69;2070778;28;20076;-53
2022/10/24 04:47:56;;;;;;;4.60;4.13;;;;;;;22.01;64.08;99269.06;2069613;28;20054;-46
2022/10/24 04:48:58;;;;;;;6.65;4.45;;;;;;;22.01;64.09;99269.06;2066368;28;20613;-50
2022/10/24 04:49:59;;;;;;;6.15;4.25;;;;;;;22.01;64.06;99263.69;2067082;28;20122;-54
2022/10/24 04:51:02;;;;;;;4.60;4.10;;;;;;;22.02;63.87;99264.50;2070084;28;20072;-50
2022/10/24 04:52:03;;;;;;;5.07;4.63;;;;;;;22.02;63.96;99259.91;2069561;28;20046;-52
2022/10/24 04:53:05;;;;;;;6.43;4.97;;;;;;;22.02;64.02;99259.91;2072021;28;21094;-46
2022/10/24 04:54:07;;;;;;;5.97;5.15;;;;;;;22.01;64.03;99268.25;2067030;28;20045;-52
2022/10/24 04:55:09;;;;;;;6.15;5.20;;;;;;;22.01;64.04;99265.56;2069856;28;20506;-52
2022/10/24 04:56:10;;;;;;;9.23;4.45;;;;;;;22.02;63.85;99272.59;2069531;28;20053;-54
2022/10/24 04:57:11;;;;;;;5.68;4.65;;;;;;;22.02;63.78;99278.00;2071827;28;20045;-52
2022/10/24 04:58:12;;;;;;;6.43;5.15;;;;;;;22.02;63.99;99278.81;2069677;28;20119;-49
2022/10/24 04:59:14;;;;;;;5.72;4.90;;;;;;;22.02;64.09;99275.31;2062305;28;20057;-48
2022/10/24 05:00:15;;;;;;;5.72;5.13;;;;;;;22.02;63.97;99265.31;2066135;28;20058;-53
2022/10/24 05:01:17;;;;;;;4.82;4.40;;;;;;;22.03;63.75;99263.44;2071517;28;20083;-51